Lima/jorge Chave

SPJC · Callao, 秘鲁

罗盘
风向 的 风向 的 风向 到 风向 180° 豪尔赫·查韦斯国际机场 16/34
风: 11 kt, 4 beaufort

10 kt

5 kt
改变
0 1.000 2.000 3.000 4.000 5.000
FEW 1.200 ft
METAR SPJC 011900Z 18011KT 150V210 9999 FEW012 22/16 Q1012 NOSIG RMK PP000

METAR 豪尔赫·查韦斯国际机场 - SPJC

豪尔赫·查韦斯国际机场是,秘鲁中的未知。 该机场有一条跑道: 16/34. 该领域的国际民航组织标志是SPJC.

这份报告是针对2022年12月1日 14:00, 当地时间在豪尔赫·查韦斯国际机场进行的。

机场观察

风向为180°,速度为11 kt。 风向在150°和210°之间变化。

可见度为10 km 或者更多。

有几云在1.200 ft的高度。 没有观察到天花板。

温度和风寒是22 °C。 露点为16 °C,相对湿度为69%。 海平面上的气压为1012 hPa (QNH)。

白天

今天,太阳从05:34升起,在18:20降落。 这适用于豪尔赫·查韦斯国际机场,世界夏令时可能有所不同。 当地时间与世界标准时间之间的时差为-5 小时。 当前,没有夏令时有效。

公司介绍

我们没有关于这个机场的公司信息。

体会

到Vliegles.nl去找飞行课程,跳伞和其他飞行体验。 浏览页面,了解豪尔赫·查韦斯国际机场附近所有可用的活动。 你也可以使用搜索功能来寻找你所在地附近的特定飞行课程、跳伞或其他飞行体验。

跑道

Id 标题 侧风 逆风 侧风 %
16/34 155°-335° 5 kt 10 kt 42 %

逆风成分最大的方向会被突出显示,并用于横风计算。 这并不一定意味着这个方向在使用。

乌云

1.200 ft FEW 几云

温度 & 天气

温度 22 °C
露点 16 °C
相对湿度 69%
Kp-index 3 (0-9)

评论

PP000

白天

日出
05:34
中午
11:57
日落
18:20 (4:00)

小工具

你想在你的网站上有一个关于豪尔赫·查韦斯国际机场的当前航空天气(METAR)的小部件吗?

显示HTML代码

我们和第三方通过cookies跟踪您在我们网站上的互联网行为。如果你继续,我们认为你同意我们的饼干政策